Etusivu
METAR-TAF:

METAR-TAF

Lentoasemat :

Gwinner, Pohjois-Dakota, Yhdysvallat

Leveyspiiri: 46-13-07N, Pituuspiiri: 097-38-37W, korkeus merenpinnasta: 386 m

Tämänhetkinen sää

Tämä raportti tehtiin 16 minuuttia sitten, kello 06.35 UTC
Tuuli 4 kn kaakosta
Lämpötila 20°C
Kosteus 94%
Ilmanpaine 1015 hPa
Näkyvyys: 16.1 km
selkeää

METAR: KGWR 020635Z AUTO 14004KT 10SM CLR 20/19 A2996 RMK A01

Aika: 01:51 (06:51 UTC)


TAF: puuttuu

Säähavainnot ja -ennusteet yli 4000 lentoasemalta (METAR- ja TAF-raportit).

Käytössä olevat sääasemat on merkitty karttaan keltaisilla ja punaisilla pisteillä.

Aseta hiiri pisteen päälle nähdäksesi sääaseman nimen.

Klikkaa sitten nähdäksesi säähavainnot ja -ennusteet.

Kartan vaihtaminen: klikkaa mustalla rastilla varustettuja vihreitä pisteitä, niin voit zoomata sisään; viivalla varustettua vihreää pistettä, niin voit zoomata ulos tai vihreitä nuolia, niin pääset viereisille kartoille.


METAR-TAF: